createdAt,value
2022-11-27T00:00:00.000Z,22.21
2022-11-27T00:15:00.000Z,22.13
2022-11-27T00:30:00.000Z,20.38
2022-11-27T00:45:00.000Z,20.95
2022-11-27T01:00:00.000Z,19.98
2022-11-27T01:15:00.000Z,17.36
2022-11-27T01:30:00.000Z,15.44
2022-11-27T01:45:00.000Z,15.48
2022-11-27T02:00:00.000Z,13.59
2022-11-27T02:15:00.000Z,13.61
2022-11-27T02:30:00.000Z,14.59
2022-11-27T02:45:00.000Z,13.82
2022-11-27T03:00:00.000Z,14.82
2022-11-27T03:15:00.000Z,15.44
2022-11-27T03:30:00.000Z,13.71
2022-11-27T03:45:00.000Z,14.06
2022-11-27T04:00:00.000Z,15.2
2022-11-27T04:15:00.000Z,15.45
2022-11-27T04:30:00.000Z,15.04
2022-11-27T04:45:00.000Z,14.75
2022-11-27T05:00:00.000Z,12.07
2022-11-27T05:15:00.000Z,29.07
2022-11-27T05:30:00.000Z,16.6
2022-11-27T05:45:00.000Z,26.79
2022-11-27T06:00:00.000Z,14.69
2022-11-27T06:15:00.000Z,14.71
2022-11-27T06:30:00.000Z,18.76
2022-11-27T06:45:00.000Z,17.59
2022-11-27T07:00:00.000Z,16.71
2022-11-27T07:15:00.000Z,17.86
2022-11-27T07:30:00.000Z,16.99
2022-11-27T07:45:00.000Z,18.87
2022-11-27T08:00:00.000Z,18
2022-11-27T08:15:00.000Z,18.49
2022-11-27T08:30:00.000Z,18.16
2022-11-27T08:45:00.000Z,25.31
2022-11-27T09:15:00.000Z,16
2022-11-27T09:15:00.000Z,16.61
2022-11-27T09:30:00.000Z,16.62
2022-11-27T09:45:00.000Z,21.2
2022-11-27T10:00:00.000Z,18.14
2022-11-27T10:15:00.000Z,20.59
2022-11-27T10:30:00.000Z,24.11
2022-11-27T10:45:00.000Z,21.25
2022-11-27T11:00:00.000Z,19.6
2022-11-27T11:15:00.000Z,20.8
2022-11-27T11:30:00.000Z,18.81
2022-11-27T11:45:00.000Z,16.12
2022-11-27T12:00:00.000Z,18.22
2022-11-27T12:15:00.000Z,16.66
2022-11-27T12:30:00.000Z,22.4
2022-11-27T12:45:00.000Z,18.13
2022-11-27T13:00:00.000Z,18.89
2022-11-27T13:15:00.000Z,17.87
2022-11-27T13:30:00.000Z,16.8
2022-11-27T14:00:00.000Z,20
2022-11-27T14:00:00.000Z,20.13
2022-11-27T14:15:00.000Z,19.76
2022-11-27T14:30:00.000Z,20.94
2022-11-27T14:45:00.000Z,23.07
2022-11-27T15:00:00.000Z,33.85
2022-11-27T15:15:00.000Z,20.58
2022-11-27T15:30:00.000Z,20.47
2022-11-27T15:45:00.000Z,24.28
2022-11-27T16:00:00.000Z,28.04
2022-11-27T16:15:00.000Z,27.96
2022-11-27T16:30:00.000Z,29.42
2022-11-27T16:45:00.000Z,28.41
2022-11-27T17:00:00.000Z,28.88
2022-11-27T17:15:00.000Z,47.73
2022-11-27T17:30:00.000Z,28.8
2022-11-27T17:45:00.000Z,29.78
2022-11-27T18:00:00.000Z,30.41
2022-11-27T18:15:00.000Z,27.72
2022-11-27T18:30:00.000Z,24.41
2022-11-27T18:45:00.000Z,23.4
2022-11-27T19:00:00.000Z,31.28
2022-11-27T19:15:00.000Z,28.68
2022-11-27T19:30:00.000Z,26.88
2022-11-27T19:45:00.000Z,22.79
2022-11-27T20:00:00.000Z,22.11
2022-11-27T20:15:00.000Z,31.93
2022-11-27T20:30:00.000Z,33.02
2022-11-27T20:45:00.000Z,32.99
2022-11-27T21:00:00.000Z,32.84
2022-11-27T21:15:00.000Z,31.94
2022-11-27T21:30:00.000Z,35.51
2022-11-27T21:45:00.000Z,38.79
2022-11-27T22:00:00.000Z,37.67
2022-11-27T22:15:00.000Z,35.92
2022-11-27T22:30:00.000Z,34.78
2022-11-27T22:45:00.000Z,29.62
2022-11-27T23:00:00.000Z,25.86
2022-11-27T23:15:00.000Z,24.01
2022-11-27T23:30:00.000Z,23.16
2022-11-27T23:45:00.000Z,25.04
